sensor_id;sensor_type;location;lat;lon;timestamp;P1;durP1;ratioP1;P2;durP2;ratioP2
53618;SDS011;68717;53.040;18.488;2023-04-24T00:00:01;14.98;;;9.60;;
53618;SDS011;68717;53.040;18.488;2023-04-24T00:00:17;14.02;;;9.75;;
53618;SDS011;68717;53.040;18.488;2023-04-24T00:00:50;15.48;;;10.07;;
53618;SDS011;68717;53.040;18.488;2023-04-24T00:01:10;14.45;;;9.88;;
53618;SDS011;68717;53.040;18.488;2023-04-24T00:01:25;13.00;;;9.50;;
53618;SDS011;68717;53.040;18.488;2023-04-24T00:01:39;12.88;;;9.30;;
53618;SDS011;68717;53.040;18.488;2023-04-24T00:01:51;13.20;;;9.48;;
53618;SDS011;68717;53.040;18.488;2023-04-24T00:02:05;13.50;;;9.50;;
53618;SDS011;68717;53.040;18.488;2023-04-24T00:02:20;13.85;;;9.43;;
53618;SDS011;68717;53.040;18.488;2023-04-24T00:02:34;14.30;;;9.85;;
53618;SDS011;68717;53.040;18.488;2023-04-24T00:02:50;13.93;;;10.00;;
53618;SDS011;68717;53.040;18.488;2023-04-24T00:03:05;12.65;;;9.75;;
53618;SDS011;68717;53.040;18.488;2023-04-24T00:03:18;12.55;;;9.55;;
53618;SDS011;68717;53.040;18.488;2023-04-24T00:03:33;13.27;;;9.48;;
53618;SDS011;68717;53.040;18.488;2023-04-24T00:03:46;13.10;;;9.48;;
53618;SDS011;68717;53.040;18.488;2023-04-24T00:03:59;12.75;;;9.60;;
53618;SDS011;68717;53.040;18.488;2023-04-24T00:04:15;13.38;;;9.60;;
53618;SDS011;68717;53.040;18.488;2023-04-24T00:04:29;13.88;;;9.52;;
53618;SDS011;68717;53.040;18.488;2023-04-24T00:04:44;13.23;;;9.65;;
53618;SDS011;68717;53.040;18.488;2023-04-24T00:04:57;13.82;;;9.73;;
53618;SDS011;68717;53.040;18.488;2023-04-24T00:05:14;13.38;;;9.75;;
53618;SDS011;68717;53.040;18.488;2023-04-24T00:05:29;12.48;;;9.43;;
53618;SDS011;68717;53.040;18.488;2023-04-24T00:05:42;12.90;;;9.18;;
53618;SDS011;68717;53.040;18.488;2023-04-24T00:05:54;14.25;;;9.43;;
53618;SDS011;68717;53.040;18.488;2023-04-24T00:06:07;14.02;;;9.20;;
53618;SDS011;68717;53.040;18.488;2023-04-24T00:06:20;14.05;;;9.20;;
53618;SDS011;68717;53.040;18.488;2023-04-24T00:06:35;14.45;;;9.55;;
53618;SDS011;68717;53.040;18.488;2023-04-24T00:06:49;13.95;;;9.63;;
53618;SDS011;68717;53.040;18.488;2023-04-24T00:07:06;13.18;;;9.38;;
53618;SDS011;68717;53.040;18.488;2023-04-24T00:07:18;13.27;;;9.30;;
53618;SDS011;68717;53.040;18.488;2023-04-24T00:07:32;13.55;;;9.32;;
53618;SDS011;68717;53.040;18.488;2023-04-24T00:07:45;13.60;;;9.18;;
53618;SDS011;68717;53.040;18.488;2023-04-24T00:07:58;13.13;;;9.63;;
53618;SDS011;68717;53.040;18.488;2023-04-24T00:08:10;12.18;;;9.52;;
53618;SDS011;68717;53.040;18.488;2023-04-24T00:08:24;12.07;;;9.25;;
53618;SDS011;68717;53.040;18.488;2023-04-24T00:08:37;13.63;;;9.32;;
53618;SDS011;68717;53.040;18.488;2023-04-24T00:08:49;13.60;;;9.18;;
53618;SDS011;68717;53.040;18.488;2023-04-24T00:09:03;12.95;;;9.07;;
53618;SDS011;68717;53.040;18.488;2023-04-24T00:09:16;12.88;;;9.05;;
53618;SDS011;68717;53.040;18.488;2023-04-24T00:09:28;12.73;;;9.05;;
53618;SDS011;68717;53.040;18.488;2023-04-24T00:09:41;12.45;;;9.10;;
53618;SDS011;68717;53.040;18.488;2023-04-24T00:09:55;12.50;;;9.20;;
53618;SDS011;68717;53.040;18.488;2023-04-24T00:10:08;13.48;;;9.40;;
53618;SDS011;68717;53.040;18.488;2023-04-24T00:10:21;13.75;;;9.65;;
53618;SDS011;68717;53.040;18.488;2023-04-24T00:10:34;12.90;;;9.32;;
53618;SDS011;68717;53.040;18.488;2023-04-24T00:10:47;12.80;;;9.20;;
53618;SDS011;68717;53.040;18.488;2023-04-24T00:11:00;12.60;;;9.18;;
53618;SDS011;68717;53.040;18.488;2023-04-24T00:11:12;12.35;;;9.00;;
53618;SDS011;68717;53.040;18.488;2023-04-24T00:11:26;12.63;;;8.90;;
53618;SDS011;68717;53.040;18.488;2023-04-24T00:11:39;13.05;;;9.10;;
53618;SDS011;68717;53.040;18.488;2023-04-24T00:11:53;12.30;;;9.20;;
53618;SDS011;68717;53.040;18.488;2023-04-24T00:12:06;12.32;;;9.10;;
53618;SDS011;68717;53.040;18.488;2023-04-24T00:12:18;12.10;;;8.98;;
53618;SDS011;68717;53.040;18.488;2023-04-24T00:12:31;12.30;;;9.25;;
53618;SDS011;68717;53.040;18.488;2023-04-24T00:12:44;12.95;;;9.45;;
53618;SDS011;68717;53.040;18.488;2023-04-24T00:12:58;13.27;;;9.05;;
53618;SDS011;68717;53.040;18.488;2023-04-24T00:13:11;13.07;;;8.98;;
53618;SDS011;68717;53.040;18.488;2023-04-24T00:13:24;12.43;;;8.98;;
53618;SDS011;68717;53.040;18.488;2023-04-24T00:13:37;13.18;;;8.98;;
53618;SDS011;68717;53.040;18.488;2023-04-24T00:13:50;13.23;;;9.00;;
53618;SDS011;68717;53.040;18.488;2023-04-24T00:14:03;12.85;;;8.88;;
53618;SDS011;68717;53.040;18.488;2023-04-24T00:14:16;12.43;;;9.13;;
53618;SDS011;68717;53.040;18.488;2023-04-24T00:14:28;13.05;;;9.02;;
53618;SDS011;68717;53.040;18.488;2023-04-24T00:14:42;12.65;;;8.88;;
53618;SDS011;68717;53.040;18.488;2023-04-24T00:14:55;12.43;;;8.98;;
53618;SDS011;68717;53.040;18.488;2023-04-24T00:15:08;11.95;;;8.65;;
53618;SDS011;68717;53.040;18.488;2023-04-24T00:15:22;11.73;;;8.55;;
53618;SDS011;68717;53.040;18.488;2023-04-24T00:15:35;12.13;;;8.65;;
53618;SDS011;68717;53.040;18.488;2023-04-24T00:15:48;12.27;;;8.93;;
53618;SDS011;68717;53.040;18.488;2023-04-24T00:16:01;11.75;;;8.98;;
53618;SDS011;68717;53.040;18.488;2023-04-24T00:16:14;12.40;;;8.98;;
53618;SDS011;68717;53.040;18.488;2023-04-24T00:16:27;12.52;;;8.68;;
53618;SDS011;68717;53.040;18.488;2023-04-24T00:16:40;13.25;;;8.85;;
53618;SDS011;68717;53.040;18.488;2023-04-24T00:16:53;13.40;;;8.88;;
53618;SDS011;68717;53.040;18.488;2023-04-24T00:17:06;12.95;;;8.80;;
53618;SDS011;68717;53.040;18.488;2023-04-24T00:17:19;11.93;;;8.90;;
53618;SDS011;68717;53.040;18.488;2023-04-24T00:17:32;11.82;;;8.90;;
53618;SDS011;68717;53.040;18.488;2023-04-24T00:17:46;12.45;;;8.70;;
53618;SDS011;68717;53.040;18.488;2023-04-24T00:17:59;13.07;;;8.70;;
53618;SDS011;68717;53.040;18.488;2023-04-24T00:18:14;12.30;;;8.68;;
53618;SDS011;68717;53.040;18.488;2023-04-24T00:18:27;11.52;;;8.43;;
53618;SDS011;68717;53.040;18.488;2023-04-24T00:18:40;12.13;;;8.60;;
53618;SDS011;68717;53.040;18.488;2023-04-24T00:18:53;12.75;;;8.75;;
53618;SDS011;68717;53.040;18.488;2023-04-24T00:19:06;11.90;;;8.68;;
53618;SDS011;68717;53.040;18.488;2023-04-24T00:19:20;11.43;;;8.68;;
53618;SDS011;68717;53.040;18.488;2023-04-24T00:19:33;12.30;;;8.80;;
53618;SDS011;68717;53.040;18.488;2023-04-24T00:19:46;12.60;;;8.80;;
53618;SDS011;68717;53.040;18.488;2023-04-24T00:19:58;13.23;;;8.88;;
53618;SDS011;68717;53.040;18.488;2023-04-24T00:20:11;12.77;;;9.07;;
53618;SDS011;68717;53.040;18.488;2023-04-24T00:20:25;12.23;;;9.38;;
53618;SDS011;68717;53.040;18.488;2023-04-24T00:20:40;12.60;;;9.60;;
53618;SDS011;68717;53.040;18.488;2023-04-24T00:20:53;12.75;;;9.60;;
53618;SDS011;68717;53.040;18.488;2023-04-24T00:21:05;12.70;;;9.63;;
53618;SDS011;68717;53.040;18.488;2023-04-24T00:21:19;12.25;;;9.27;;
53618;SDS011;68717;53.040;18.488;2023-04-24T00:21:32;11.95;;;9.18;;
53618;SDS011;68717;53.040;18.488;2023-04-24T00:21:45;12.40;;;9.25;;
53618;SDS011;68717;53.040;18.488;2023-04-24T00:22:01;13.73;;;9.38;;
53618;SDS011;68717;53.040;18.488;2023-04-24T00:22:14;14.80;;;9.57;;
53618;SDS011;68717;53.040;18.488;2023-04-24T00:22:27;14.35;;;9.43;;
53618;SDS011;68717;53.040;18.488;2023-04-24T00:22:40;13.63;;;9.40;;
53618;SDS011;68717;53.040;18.488;2023-04-24T00:22:53;12.82;;;9.10;;
53618;SDS011;68717;53.040;18.488;2023-04-24T00:23:06;12.68;;;9.20;;
53618;SDS011;68717;53.040;18.488;2023-04-24T00:23:20;12.57;;;9.18;;
53618;SDS011;68717;53.040;18.488;2023-04-24T00:23:32;12.50;;;8.95;;
53618;SDS011;68717;53.040;18.488;2023-04-24T00:23:45;12.13;;;8.68;;
53618;SDS011;68717;53.040;18.488;2023-04-24T00:23:58;12.25;;;8.57;;
53618;SDS011;68717;53.040;18.488;2023-04-24T00:24:11;12.30;;;8.75;;
53618;SDS011;68717;53.040;18.488;2023-04-24T00:24:23;12.68;;;8.90;;
53618;SDS011;68717;53.040;18.488;2023-04-24T00:24:37;12.75;;;8.85;;
53618;SDS011;68717;53.040;18.488;2023-04-24T00:24:50;13.32;;;8.85;;
53618;SDS011;68717;53.040;18.488;2023-04-24T00:25:03;13.57;;;8.82;;
53618;SDS011;68717;53.040;18.488;2023-04-24T00:25:16;12.10;;;8.70;;
53618;SDS011;68717;53.040;18.488;2023-04-24T00:25:29;12.30;;;8.98;;
53618;SDS011;68717;53.040;18.488;2023-04-24T00:25:42;12.52;;;9.15;;
53618;SDS011;68717;53.040;18.488;2023-04-24T00:25:54;12.65;;;9.30;;
53618;SDS011;68717;53.040;18.488;2023-04-24T00:26:08;14.27;;;9.13;;
53618;SDS011;68717;53.040;18.488;2023-04-24T00:26:21;14.98;;;8.90;;
53618;SDS011;68717;53.040;18.488;2023-04-24T00:26:33;15.18;;;9.02;;
53618;SDS011;68717;53.040;18.488;2023-04-24T00:26:46;14.43;;;9.30;;
53618;SDS011;68717;53.040;18.488;2023-04-24T00:26:59;13.48;;;9.18;;
53618;SDS011;68717;53.040;18.488;2023-04-24T00:27:13;12.13;;;9.10;;
53618;SDS011;68717;53.040;18.488;2023-04-24T00:27:25;13.10;;;9.27;;
53618;SDS011;68717;53.040;18.488;2023-04-24T00:27:39;13.55;;;9.27;;
53618;SDS011;68717;53.040;18.488;2023-04-24T00:27:52;13.30;;;9.13;;
53618;SDS011;68717;53.040;18.488;2023-04-24T00:28:05;12.98;;;8.88;;
53618;SDS011;68717;53.040;18.488;2023-04-24T00:28:17;12.05;;;8.70;;
53618;SDS011;68717;53.040;18.488;2023-04-24T00:28:30;12.30;;;9.05;;
53618;SDS011;68717;53.040;18.488;2023-04-24T00:28:43;12.70;;;9.00;;
53618;SDS011;68717;53.040;18.488;2023-04-24T00:28:57;13.23;;;8.60;;
53618;SDS011;68717;53.040;18.488;2023-04-24T00:29:09;12.57;;;8.50;;
53618;SDS011;68717;53.040;18.488;2023-04-24T00:29:22;11.98;;;9.00;;
53618;SDS011;68717;53.040;18.488;2023-04-24T00:29:35;12.32;;;9.20;;
53618;SDS011;68717;53.040;18.488;2023-04-24T00:29:48;13.93;;;9.60;;
53618;SDS011;68717;53.040;18.488;2023-04-24T00:30:00;14.27;;;9.20;;
53618;SDS011;68717;53.040;18.488;2023-04-24T00:30:13;13.98;;;8.90;;
53618;SDS011;68717;53.040;18.488;2023-04-24T00:30:27;12.80;;;9.07;;
53618;SDS011;68717;53.040;18.488;2023-04-24T00:30:41;12.38;;;9.30;;
53618;SDS011;68717;53.040;18.488;2023-04-24T00:30:54;12.27;;;9.20;;
53618;SDS011;68717;53.040;18.488;2023-04-24T00:31:06;12.60;;;9.30;;
53618;SDS011;68717;53.040;18.488;2023-04-24T00:31:19;13.40;;;9.55;;
53618;SDS011;68717;53.040;18.488;2023-04-24T00:31:32;12.63;;;9.30;;
53618;SDS011;68717;53.040;18.488;2023-04-24T00:31:47;11.95;;;9.13;;
53618;SDS011;68717;53.040;18.488;2023-04-24T00:32:00;12.40;;;8.70;;
53618;SDS011;68717;53.040;18.488;2023-04-24T00:32:13;12.88;;;8.90;;
53618;SDS011;68717;53.040;18.488;2023-04-24T00:32:26;14.43;;;9.60;;
53618;SDS011;68717;53.040;18.488;2023-04-24T00:32:40;15.20;;;9.57;;
53618;SDS011;68717;53.040;18.488;2023-04-24T00:32:52;14.82;;;9.35;;
53618;SDS011;68717;53.040;18.488;2023-04-24T00:33:05;13.20;;;9.30;;
53618;SDS011;68717;53.040;18.488;2023-04-24T00:33:19;13.20;;;9.35;;
53618;SDS011;68717;53.040;18.488;2023-04-24T00:33:33;12.13;;;8.90;;
53618;SDS011;68717;53.040;18.488;2023-04-24T00:33:46;11.95;;;8.95;;
53618;SDS011;68717;53.040;18.488;2023-04-24T00:33:58;12.63;;;9.23;;
53618;SDS011;68717;53.040;18.488;2023-04-24T00:34:11;12.75;;;9.20;;
53618;SDS011;68717;53.040;18.488;2023-04-24T00:34:24;12.77;;;9.13;;
53618;SDS011;68717;53.040;18.488;2023-04-24T00:34:37;13.35;;;9.38;;
53618;SDS011;68717;53.040;18.488;2023-04-24T00:34:50;13.00;;;9.35;;
53618;SDS011;68717;53.040;18.488;2023-04-24T00:35:04;13.13;;;9.18;;
53618;SDS011;68717;53.040;18.488;2023-04-24T00:35:18;14.15;;;9.05;;
53618;SDS011;68717;53.040;18.488;2023-04-24T00:35:32;14.70;;;9.13;;
53618;SDS011;68717;53.040;18.488;2023-04-24T00:35:44;14.02;;;9.65;;
53618;SDS011;68717;53.040;18.488;2023-04-24T00:35:57;13.25;;;9.70;;
53618;SDS011;68717;53.040;18.488;2023-04-24T00:36:10;12.75;;;9.40;;
53618;SDS011;68717;53.040;18.488;2023-04-24T00:36:23;12.77;;;9.30;;
53618;SDS011;68717;53.040;18.488;2023-04-24T00:36:37;13.45;;;9.57;;
53618;SDS011;68717;53.040;18.488;2023-04-24T00:36:50;13.40;;;9.50;;
53618;SDS011;68717;53.040;18.488;2023-04-24T00:37:04;13.07;;;9.35;;
53618;SDS011;68717;53.040;18.488;2023-04-24T00:37:17;12.07;;;8.98;;
53618;SDS011;68717;53.040;18.488;2023-04-24T00:37:29;13.07;;;8.93;;
53618;SDS011;68717;53.040;18.488;2023-04-24T00:37:42;13.95;;;9.20;;
53618;SDS011;68717;53.040;18.488;2023-04-24T00:37:55;12.77;;;9.38;;
53618;SDS011;68717;53.040;18.488;2023-04-24T00:38:08;12.82;;;9.30;;
53618;SDS011;68717;53.040;18.488;2023-04-24T00:38:21;12.95;;;9.10;;
53618;SDS011;68717;53.040;18.488;2023-04-24T00:38:35;12.73;;;8.82;;
53618;SDS011;68717;53.040;18.488;2023-04-24T00:38:47;12.30;;;8.65;;
53618;SDS011;68717;53.040;18.488;2023-04-24T00:39:00;11.73;;;8.60;;
53618;SDS011;68717;53.040;18.488;2023-04-24T00:39:13;11.65;;;8.60;;
53618;SDS011;68717;53.040;18.488;2023-04-24T00:39:26;11.55;;;8.77;;
53618;SDS011;68717;53.040;18.488;2023-04-24T00:39:38;11.85;;;9.07;;
53618;SDS011;68717;53.040;18.488;2023-04-24T00:39:52;12.60;;;9.25;;
53618;SDS011;68717;53.040;18.488;2023-04-24T00:40:06;12.85;;;9.25;;
53618;SDS011;68717;53.040;18.488;2023-04-24T00:40:19;13.20;;;9.30;;
53618;SDS011;68717;53.040;18.488;2023-04-24T00:40:32;12.35;;;9.15;;
53618;SDS011;68717;53.040;18.488;2023-04-24T00:40:45;12.10;;;9.07;;
53618;SDS011;68717;53.040;18.488;2023-04-24T00:40:59;12.30;;;9.32;;
53618;SDS011;68717;53.040;18.488;2023-04-24T00:41:13;12.73;;;9.40;;
53618;SDS011;68717;53.040;18.488;2023-04-24T00:41:26;13.35;;;9.55;;
53618;SDS011;68717;53.040;18.488;2023-04-24T00:41:39;14.63;;;9.38;;
53618;SDS011;68717;53.040;18.488;2023-04-24T00:41:51;13.98;;;9.07;;
53618;SDS011;68717;53.040;18.488;2023-04-24T00:42:05;13.88;;;9.27;;
53618;SDS011;68717;53.040;18.488;2023-04-24T00:42:18;14.60;;;9.43;;
53618;SDS011;68717;53.040;18.488;2023-04-24T00:42:31;13.65;;;9.40;;
53618;SDS011;68717;53.040;18.488;2023-04-24T00:42:45;13.73;;;9.50;;
53618;SDS011;68717;53.040;18.488;2023-04-24T00:42:58;12.98;;;9.32;;
53618;SDS011;68717;53.040;18.488;2023-04-24T00:43:11;13.75;;;9.60;;
53618;SDS011;68717;53.040;18.488;2023-04-24T00:43:24;14.15;;;9.77;;
53618;SDS011;68717;53.040;18.488;2023-04-24T00:43:37;13.73;;;9.55;;
53618;SDS011;68717;53.040;18.488;2023-04-24T00:43:50;12.50;;;9.13;;
53618;SDS011;68717;53.040;18.488;2023-04-24T00:44:03;13.05;;;9.27;;
53618;SDS011;68717;53.040;18.488;2023-04-24T00:44:17;13.90;;;9.60;;
53618;SDS011;68717;53.040;18.488;2023-04-24T00:44:30;13.13;;;9.35;;
53618;SDS011;68717;53.040;18.488;2023-04-24T00:44:44;13.10;;;9.10;;
53618;SDS011;68717;53.040;18.488;2023-04-24T00:44:57;13.15;;;9.10;;
53618;SDS011;68717;53.040;18.488;2023-04-24T00:45:10;13.43;;;9.30;;
53618;SDS011;68717;53.040;18.488;2023-04-24T00:45:24;12.75;;;9.50;;
53618;SDS011;68717;53.040;18.488;2023-04-24T00:45:36;13.43;;;9.60;;
53618;SDS011;68717;53.040;18.488;2023-04-24T00:45:50;13.23;;;9.48;;
53618;SDS011;68717;53.040;18.488;2023-04-24T00:46:03;12.88;;;9.80;;
53618;SDS011;68717;53.040;18.488;2023-04-24T00:46:17;12.57;;;9.88;;
53618;SDS011;68717;53.040;18.488;2023-04-24T00:46:31;12.43;;;9.88;;
53618;SDS011;68717;53.040;18.488;2023-04-24T00:46:44;15.35;;;10.20;;
53618;SDS011;68717;53.040;18.488;2023-04-24T00:46:58;16.63;;;10.60;;
53618;SDS011;68717;53.040;18.488;2023-04-24T00:47:12;15.50;;;10.18;;
53618;SDS011;68717;53.040;18.488;2023-04-24T00:47:26;13.25;;;9.95;;
53618;SDS011;68717;53.040;18.488;2023-04-24T00:47:40;13.05;;;10.27;;
53618;SDS011;68717;53.040;18.488;2023-04-24T00:47:54;13.95;;;10.00;;
53618;SDS011;68717;53.040;18.488;2023-04-24T00:48:08;14.15;;;9.95;;
53618;SDS011;68717;53.040;18.488;2023-04-24T00:48:23;13.75;;;10.05;;
53618;SDS011;68717;53.040;18.488;2023-04-24T00:48:37;13.93;;;9.70;;
53618;SDS011;68717;53.040;18.488;2023-04-24T00:48:51;13.40;;;9.73;;
53618;SDS011;68717;53.040;18.488;2023-04-24T00:49:05;12.68;;;9.57;;
53618;SDS011;68717;53.040;18.488;2023-04-24T00:49:18;12.85;;;9.50;;
53618;SDS011;68717;53.040;18.488;2023-04-24T00:49:31;12.80;;;9.55;;
53618;SDS011;68717;53.040;18.488;2023-04-24T00:49:44;13.80;;;9.52;;
53618;SDS011;68717;53.040;18.488;2023-04-24T00:49:57;14.55;;;9.70;;
53618;SDS011;68717;53.040;18.488;2023-04-24T00:50:10;13.65;;;9.55;;
53618;SDS011;68717;53.040;18.488;2023-04-24T00:50:25;12.45;;;9.45;;
53618;SDS011;68717;53.040;18.488;2023-04-24T00:50:39;13.38;;;9.73;;
53618;SDS011;68717;53.040;18.488;2023-04-24T00:50:52;14.93;;;9.93;;
53618;SDS011;68717;53.040;18.488;2023-04-24T00:51:05;14.93;;;9.98;;
53618;SDS011;68717;53.040;18.488;2023-04-24T00:51:18;13.70;;;9.90;;
53618;SDS011;68717;53.040;18.488;2023-04-24T00:51:32;13.50;;;9.45;;
53618;SDS011;68717;53.040;18.488;2023-04-24T00:51:45;12.68;;;9.13;;
53618;SDS011;68717;53.040;18.488;2023-04-24T00:51:57;11.88;;;9.27;;
53618;SDS011;68717;53.040;18.488;2023-04-24T00:52:11;12.52;;;9.55;;
53618;SDS011;68717;53.040;18.488;2023-04-24T00:52:29;14.18;;;9.50;;
53618;SDS011;68717;53.040;18.488;2023-04-24T00:52:44;13.88;;;9.60;;
53618;SDS011;68717;53.040;18.488;2023-04-24T00:52:57;13.85;;;9.45;;
53618;SDS011;68717;53.040;18.488;2023-04-24T00:53:09;15.55;;;9.52;;
53618;SDS011;68717;53.040;18.488;2023-04-24T00:53:22;14.73;;;9.68;;
53618;SDS011;68717;53.040;18.488;2023-04-24T00:53:36;12.15;;;9.48;;
53618;SDS011;68717;53.040;18.488;2023-04-24T00:53:49;12.27;;;9.43;;
53618;SDS011;68717;53.040;18.488;2023-04-24T00:54:03;13.60;;;9.50;;
53618;SDS011;68717;53.040;18.488;2023-04-24T00:54:15;14.80;;;9.63;;
53618;SDS011;68717;53.040;18.488;2023-04-24T00:54:28;14.63;;;9.43;;
53618;SDS011;68717;53.040;18.488;2023-04-24T00:54:41;14.10;;;9.32;;
53618;SDS011;68717;53.040;18.488;2023-04-24T00:54:55;13.68;;;9.38;;
53618;SDS011;68717;53.040;18.488;2023-04-24T00:55:08;14.02;;;9.55;;
53618;SDS011;68717;53.040;18.488;2023-04-24T00:55:21;13.38;;;9.80;;
53618;SDS011;68717;53.040;18.488;2023-04-24T00:55:34;13.82;;;9.77;;
53618;SDS011;68717;53.040;18.488;2023-04-24T00:55:49;13.13;;;9.63;;
53618;SDS011;68717;53.040;18.488;2023-04-24T00:56:04;13.88;;;9.82;;
53618;SDS011;68717;53.040;18.488;2023-04-24T00:56:17;15.50;;;9.63;;
53618;SDS011;68717;53.040;18.488;2023-04-24T00:56:31;14.18;;;9.38;;
53618;SDS011;68717;53.040;18.488;2023-04-24T00:56:45;13.20;;;9.32;;
53618;SDS011;68717;53.040;18.488;2023-04-24T00:56:58;13.35;;;9.50;;
53618;SDS011;68717;53.040;18.488;2023-04-24T00:57:13;14.68;;;9.43;;
53618;SDS011;68717;53.040;18.488;2023-04-24T00:57:27;14.25;;;9.30;;
53618;SDS011;68717;53.040;18.488;2023-04-24T00:57:40;13.23;;;9.45;;
53618;SDS011;68717;53.040;18.488;2023-04-24T00:57:54;12.35;;;9.45;;
53618;SDS011;68717;53.040;18.488;2023-04-24T00:58:07;12.75;;;9.50;;
53618;SDS011;68717;53.040;18.488;2023-04-24T00:58:20;13.13;;;9.60;;
53618;SDS011;68717;53.040;18.488;2023-04-24T00:58:33;12.80;;;9.75;;
53618;SDS011;68717;53.040;18.488;2023-04-24T00:58:46;13.30;;;9.60;;
53618;SDS011;68717;53.040;18.488;2023-04-24T00:58:59;12.80;;;9.27;;
53618;SDS011;68717;53.040;18.488;2023-04-24T00:59:12;11.95;;;9.18;;
53618;SDS011;68717;53.040;18.488;2023-04-24T00:59:29;12.27;;;9.15;;
53618;SDS011;68717;53.040;18.488;2023-04-24T00:59:42;12.45;;;9.23;;
53618;SDS011;68717;53.040;18.488;2023-04-24T00:59:56;13.57;;;9.65;;
53618;SDS011;68717;53.040;18.488;2023-04-24T01:00:09;13.65;;;9.82;;
53618;SDS011;68717;53.040;18.488;2023-04-24T01:00:24;13.02;;;9.80;;
53618;SDS011;68717;53.040;18.488;2023-04-24T01:00:37;12.60;;;9.75;;
53618;SDS011;68717;53.040;18.488;2023-04-24T01:00:51;12.82;;;9.82;;
53618;SDS011;68717;53.040;18.488;2023-04-24T01:01:06;13.40;;;9.93;;
53618;SDS011;68717;53.040;18.488;2023-04-24T01:01:19;13.50;;;9.60;;
53618;SDS011;68717;53.040;18.488;2023-04-24T01:01:33;12.73;;;9.30;;
53618;SDS011;68717;53.040;18.488;2023-04-24T01:01:47;12.35;;;9.60;;
53618;SDS011;68717;53.040;18.488;2023-04-24T01:01:59;12.00;;;9.60;;
53618;SDS011;68717;53.040;18.488;2023-04-24T01:02:13;11.70;;;9.43;;
53618;SDS011;68717;53.040;18.488;2023-04-24T01:02:27;13.20;;;9.73;;
53618;SDS011;68717;53.040;18.488;2023-04-24T01:02:41;13.93;;;9.85;;
53618;SDS011;68717;53.040;18.488;2023-04-24T01:02:57;13.68;;;9.77;;
53618;SDS011;68717;53.040;18.488;2023-04-24T01:03:14;13.00;;;9.57;;
53618;SDS011;68717;53.040;18.488;2023-04-24T01:03:30;12.02;;;9.38;;
53618;SDS011;68717;53.040;18.488;2023-04-24T01:03:44;14.23;;;9.20;;
53618;SDS011;68717;53.040;18.488;2023-04-24T01:03:58;15.13;;;9.38;;
53618;SDS011;68717;53.040;18.488;2023-04-24T01:04:12;12.82;;;9.40;;
53618;SDS011;68717;53.040;18.488;2023-04-24T01:04:26;13.57;;;9.57;;
53618;SDS011;68717;53.040;18.488;2023-04-24T01:04:39;13.82;;;9.88;;
53618;SDS011;68717;53.040;18.488;2023-04-24T01:04:52;14.05;;;9.98;;
53618;SDS011;68717;53.040;18.488;2023-04-24T01:05:06;13.48;;;9.70;;
53618;SDS011;68717;53.040;18.488;2023-04-24T01:05:20;12.55;;;9.57;;
53618;SDS011;68717;53.040;18.488;2023-04-24T01:05:34;13.02;;;9.57;;
53618;SDS011;68717;53.040;18.488;2023-04-24T01:05:47;12.80;;;9.60;;
53618;SDS011;68717;53.040;18.488;2023-04-24T01:06:01;12.57;;;9.68;;
53618;SDS011;68717;53.040;18.488;2023-04-24T01:06:13;12.75;;;9.93;;
53618;SDS011;68717;53.040;18.488;2023-04-24T01:06:27;13.15;;;9.80;;
53618;SDS011;68717;53.040;18.488;2023-04-24T01:06:43;13.50;;;9.60;;
53618;SDS011;68717;53.040;18.488;2023-04-24T01:06:57;12.63;;;9.65;;
53618;SDS011;68717;53.040;18.488;2023-04-24T01:07:12;12.73;;;9.70;;
53618;SDS011;68717;53.040;18.488;2023-04-24T01:07:25;13.40;;;9.82;;
53618;SDS011;68717;53.040;18.488;2023-04-24T01:07:38;13.15;;;10.02;;
53618;SDS011;68717;53.040;18.488;2023-04-24T01:07:51;12.63;;;10.00;;
53618;SDS011;68717;53.040;18.488;2023-04-24T01:08:04;13.13;;;10.10;;
53618;SDS011;68717;53.040;18.488;2023-04-24T01:08:17;13.60;;;10.10;;
53618;SDS011;68717;53.040;18.488;2023-04-24T01:08:30;13.50;;;10.05;;
53618;SDS011;68717;53.040;18.488;2023-04-24T01:08:43;12.20;;;9.57;;
53618;SDS011;68717;53.040;18.488;2023-04-24T01:08:59;12.20;;;9.52;;
53618;SDS011;68717;53.040;18.488;2023-04-24T01:09:12;13.18;;;9.57;;
53618;SDS011;68717;53.040;18.488;2023-04-24T01:09:26;13.00;;;9.70;;
53618;SDS011;68717;53.040;18.488;2023-04-24T01:09:39;14.20;;;9.80;;
53618;SDS011;68717;53.040;18.488;2023-04-24T01:09:53;14.63;;;9.93;;
53618;SDS011;68717;53.040;18.488;2023-04-24T01:10:06;12.73;;;9.80;;
53618;SDS011;68717;53.040;18.488;2023-04-24T01:10:20;12.98;;;10.00;;
53618;SDS011;68717;53.040;18.488;2023-04-24T01:10:35;13.15;;;10.05;;
53618;SDS011;68717;53.040;18.488;2023-04-24T01:10:51;12.63;;;9.70;;
53618;SDS011;68717;53.040;18.488;2023-04-24T01:11:06;12.90;;;9.63;;
53618;SDS011;68717;53.040;18.488;2023-04-24T01:11:18;12.75;;;9.82;;
53618;SDS011;68717;53.040;18.488;2023-04-24T01:11:32;12.90;;;10.00;;
53618;SDS011;68717;53.040;18.488;2023-04-24T01:11:44;13.02;;;10.02;;
53618;SDS011;68717;53.040;18.488;2023-04-24T01:11:57;13.88;;;10.02;;
53618;SDS011;68717;53.040;18.488;2023-04-24T01:12:10;14.88;;;10.13;;
53618;SDS011;68717;53.040;18.488;2023-04-24T01:12:24;14.77;;;10.30;;
53618;SDS011;68717;53.040;18.488;2023-04-24T01:12:37;14.70;;;10.35;;
53618;SDS011;68717;53.040;18.488;2023-04-24T01:12:50;15.02;;;10.02;;
53618;SDS011;68717;53.040;18.488;2023-04-24T01:13:03;14.88;;;9.88;;
53618;SDS011;68717;53.040;18.488;2023-04-24T01:13:16;14.43;;;10.27;;
53618;SDS011;68717;53.040;18.488;2023-04-24T01:13:30;14.40;;;10.38;;
53618;SDS011;68717;53.040;18.488;2023-04-24T01:13:43;13.48;;;10.07;;
53618;SDS011;68717;53.040;18.488;2023-04-24T01:13:57;13.05;;;10.07;;
53618;SDS011;68717;53.040;18.488;2023-04-24T01:14:12;13.25;;;10.20;;
53618;SDS011;68717;53.040;18.488;2023-04-24T01:14:24;13.10;;;9.93;;
53618;SDS011;68717;53.040;18.488;2023-04-24T01:14:38;13.30;;;9.63;;
53618;SDS011;68717;53.040;18.488;2023-04-24T01:14:51;13.50;;;9.65;;
53618;SDS011;68717;53.040;18.488;2023-04-24T01:15:04;13.55;;;9.85;;
53618;SDS011;68717;53.040;18.488;2023-04-24T01:15:18;13.48;;;9.82;;
53618;SDS011;68717;53.040;18.488;2023-04-24T01:15:32;13.07;;;9.82;;
53618;SDS011;68717;53.040;18.488;2023-04-24T01:15:45;14.48;;;10.23;;
53618;SDS011;68717;53.040;18.488;2023-04-24T01:15:58;14.75;;;10.30;;
53618;SDS011;68717;53.040;18.488;2023-04-24T01:16:11;14.73;;;10.20;;
53618;SDS011;68717;53.040;18.488;2023-04-24T01:16:24;15.52;;;10.35;;
53618;SDS011;68717;53.040;18.488;2023-04-24T01:16:37;14.18;;;10.15;;
53618;SDS011;68717;53.040;18.488;2023-04-24T01:16:51;13.48;;;10.30;;
53618;SDS011;68717;53.040;18.488;2023-04-24T01:17:04;13.82;;;10.63;;
53618;SDS011;68717;53.040;18.488;2023-04-24T01:17:17;14.52;;;10.75;;
53618;SDS011;68717;53.040;18.488;2023-04-24T01:17:30;14.98;;;10.70;;
53618;SDS011;68717;53.040;18.488;2023-04-24T01:17:44;15.18;;;10.70;;
53618;SDS011;68717;53.040;18.488;2023-04-24T01:17:57;16.30;;;10.70;;
53618;SDS011;68717;53.040;18.488;2023-04-24T01:18:11;15.20;;;10.20;;
53618;SDS011;68717;53.040;18.488;2023-04-24T01:18:24;13.45;;;10.05;;
53618;SDS011;68717;53.040;18.488;2023-04-24T01:18:38;13.15;;;9.90;;
53618;SDS011;68717;53.040;18.488;2023-04-24T01:18:51;13.48;;;10.05;;